createdAt,value
2022-10-19T00:01:22.424Z,46.22
2022-10-19T00:03:53.560Z,43.88
2022-10-19T00:06:28.528Z,43.60
2022-10-19T00:08:58.559Z,45.92
2022-10-19T00:11:29.344Z,45.60
2022-10-19T00:13:57.858Z,45.58
2022-10-19T00:16:27.264Z,45.58
2022-10-19T00:18:58.467Z,45.45
2022-10-19T00:21:26.056Z,45.70
2022-10-19T00:23:56.183Z,44.95
2022-10-19T00:26:25.631Z,45.88
2022-10-19T00:28:56.795Z,46.60
2022-10-19T00:31:24.988Z,45.15
2022-10-19T00:33:52.761Z,46.08
2022-10-19T00:36:24.596Z,46.65
2022-10-19T00:38:53.655Z,46.72
2022-10-19T00:41:22.285Z,46.83
2022-10-19T00:43:54.085Z,45.92
2022-10-19T00:46:21.843Z,46.53
2022-10-19T00:48:55.046Z,47.28
2022-10-19T00:51:23.989Z,46.38
2022-10-19T00:53:51.603Z,45.58
2022-10-19T00:56:20.243Z,47.22
2022-10-19T00:58:47.483Z,47.05
2022-10-19T01:01:19.378Z,45.58
2022-10-19T01:03:49.604Z,46.67
2022-10-19T01:06:19.045Z,47.38
2022-10-19T01:08:46.264Z,48.65
2022-10-19T01:11:41.777Z,47.70
2022-10-19T01:14:17.231Z,48.03
2022-10-19T01:16:56.244Z,47.67
2022-10-19T01:19:38.514Z,47.83
2022-10-19T01:22:25.374Z,49.72
2022-10-19T01:25:24.584Z,48.85
2022-10-19T01:28:42.514Z,48.30
2022-10-19T01:31:39.558Z,49.67
2022-10-19T01:34:21.138Z,45.90
2022-10-19T01:36:49.171Z,46.13
2022-10-19T01:39:38.699Z,47.35
2022-10-19T01:42:32.314Z,49.40
2022-10-19T01:45:19.764Z,48.50
2022-10-19T01:47:57.694Z,50.70
2022-10-19T01:50:43.549Z,50.00
2022-10-19T01:53:12.977Z,50.88
2022-10-19T01:55:45.115Z,47.25
2022-10-19T01:58:17.870Z,50.35
2022-10-19T02:00:48.000Z,47.25
2022-10-19T02:03:17.314Z,49.42
2022-10-19T02:05:46.061Z,47.65
2022-10-19T02:08:20.614Z,48.90
2022-10-19T02:10:51.453Z,48.90
2022-10-19T02:13:21.104Z,49.50
2022-10-19T02:15:52.244Z,47.58
2022-10-19T02:18:25.354Z,50.95
2022-10-19T02:20:57.445Z,49.45
2022-10-19T02:23:27.379Z,47.00
2022-10-19T02:25:58.124Z,49.83
2022-10-19T02:30:59.338Z,47.83
2022-10-19T02:33:27.564Z,48.17
2022-10-19T02:35:56.989Z,46.03
2022-10-19T02:38:24.960Z,49.92
2022-10-19T02:41:19.889Z,48.00
2022-10-19T02:43:54.369Z,48.15
2022-10-19T02:46:28.159Z,51.10
2022-10-19T02:48:56.950Z,47.97
2022-10-19T02:51:50.714Z,47.72
2022-10-19T02:54:20.315Z,48.20
2022-10-19T02:56:47.324Z,48.83
2022-10-19T02:59:14.426Z,47.53
2022-10-19T03:01:42.024Z,47.85
2022-10-19T03:04:09.144Z,51.50
2022-10-19T03:06:38.449Z,46.75
2022-10-19T03:09:05.719Z,49.67
2022-10-19T03:11:32.815Z,49.45
2022-10-19T03:13:59.805Z,48.92
2022-10-19T03:16:26.908Z,49.13
2022-10-19T03:18:56.175Z,50.38
2022-10-19T03:21:23.550Z,49.70
2022-10-19T03:23:50.629Z,49.75
2022-10-19T03:26:18.039Z,48.30
2022-10-19T03:28:46.302Z,46.85
2022-10-19T03:31:15.969Z,47.72
2022-10-19T03:33:43.105Z,47.70
2022-10-19T03:36:28.213Z,48.88
2022-10-19T03:39:00.999Z,50.83
2022-10-19T03:41:30.982Z,47.60
2022-10-19T03:46:35.904Z,45.28
2022-10-19T03:49:03.529Z,49.15
2022-10-19T03:51:32.355Z,48.40
2022-10-19T03:54:06.970Z,46.38
2022-10-19T03:56:35.506Z,49.13
2022-10-19T03:59:04.599Z,47.10
2022-10-19T04:01:34.118Z,47.10
2022-10-19T04:04:03.254Z,47.38
2022-10-19T04:06:33.121Z,47.63
2022-10-19T04:09:00.686Z,48.75
2022-10-19T04:11:33.386Z,50.70
2022-10-19T04:14:01.409Z,47.15
2022-10-19T04:16:29.849Z,46.90
2022-10-19T04:19:00.444Z,47.28
2022-10-19T04:21:30.354Z,47.10
2022-10-19T04:24:17.789Z,45.90
2022-10-19T04:26:48.644Z,47.13
2022-10-19T04:29:19.078Z,46.88
2022-10-19T04:31:49.858Z,48.58
2022-10-19T04:34:17.624Z,47.10
2022-10-19T04:36:47.360Z,49.03
2022-10-19T04:39:17.065Z,49.60
2022-10-19T04:41:44.120Z,48.00
2022-10-19T04:44:11.414Z,50.20
2022-10-19T04:46:39.004Z,48.28
2022-10-19T04:49:07.060Z,48.63
2022-10-19T04:51:37.319Z,47.90
2022-10-19T04:54:06.495Z,49.88
2022-10-19T04:56:33.534Z,48.80
2022-10-19T04:59:02.840Z,47.17
2022-10-19T05:01:33.146Z,48.72
2022-10-19T05:04:05.911Z,48.70
2022-10-19T05:06:33.415Z,48.22
2022-10-19T05:09:01.474Z,49.38
2022-10-19T05:11:28.764Z,48.92
2022-10-19T05:13:56.904Z,47.58
2022-10-19T05:16:24.654Z,51.00
2022-10-19T05:18:56.198Z,50.67
2022-10-19T05:21:23.445Z,49.65
2022-10-19T05:23:54.985Z,50.92
2022-10-19T05:26:24.869Z,48.80
2022-10-19T05:28:57.234Z,48.92
2022-10-19T05:31:27.204Z,49.85
2022-10-19T05:33:56.459Z,49.42
2022-10-19T05:36:30.521Z,50.83
2022-10-19T05:38:58.384Z,50.42
2022-10-19T05:41:26.421Z,51.72
2022-10-19T05:43:59.189Z,50.60
2022-10-19T05:46:29.409Z,51.50
2022-10-19T05:48:57.781Z,50.63
2022-10-19T05:51:28.594Z,49.08
2022-10-19T05:53:57.876Z,51.70
2022-10-19T05:56:29.613Z,51.08
2022-10-19T05:58:58.484Z,51.45
2022-10-19T06:01:25.855Z,51.55
2022-10-19T06:03:54.875Z,51.25
2022-10-19T06:06:22.824Z,49.30
2022-10-19T06:08:51.044Z,48.92
2022-10-19T06:11:20.849Z,49.30
2022-10-19T06:13:50.840Z,50.47
2022-10-19T06:16:19.819Z,52.05
2022-10-19T06:18:47.220Z,49.17
2022-10-19T06:21:19.479Z,48.88
2022-10-19T06:23:53.225Z,49.63
2022-10-19T06:26:20.980Z,49.90
2022-10-19T06:28:49.239Z,52.10
2022-10-19T06:31:16.925Z,50.72
2022-10-19T06:33:48.527Z,52.22
2022-10-19T06:36:20.871Z,52.15
2022-10-19T06:38:48.598Z,53.58
2022-10-19T06:41:15.734Z,52.45
2022-10-19T06:43:44.809Z,37.53
2022-10-19T06:46:23.546Z,35.30
2022-10-19T06:48:53.054Z,43.58
2022-10-19T06:51:20.750Z,46.85
2022-10-19T06:53:48.997Z,41.40
2022-10-19T06:56:19.149Z,46.20
2022-10-19T06:58:46.382Z,48.45
2022-10-19T07:01:14.405Z,46.22
2022-10-19T07:03:43.314Z,49.47
2022-10-19T07:06:11.905Z,51.85
2022-10-19T07:08:40.565Z,46.60
2022-10-19T07:11:14.857Z,47.25
2022-10-19T07:13:42.093Z,50.22
2022-10-19T07:16:16.059Z,52.78
2022-10-19T07:18:47.695Z,54.38
2022-10-19T07:21:16.266Z,49.42
2022-10-19T07:23:45.220Z,50.38
2022-10-19T07:26:20.615Z,48.60
2022-10-19T07:28:48.248Z,46.45
2022-10-19T07:31:18.124Z,46.42
2022-10-19T07:33:47.569Z,47.42
2022-10-19T07:36:15.024Z,53.53
2022-10-19T07:38:42.174Z,53.85
2022-10-19T07:41:15.195Z,54.88
2022-10-19T07:43:43.653Z,53.25
2022-10-19T07:46:16.639Z,53.67
2022-10-19T07:48:44.205Z,55.65
2022-10-19T07:51:13.284Z,55.28
2022-10-19T07:53:40.535Z,55.03
2022-10-19T07:56:10.814Z,54.70
2022-10-19T07:58:38.595Z,54.55
2022-10-19T08:01:09.236Z,54.40
2022-10-19T08:06:27.485Z,52.38
2022-10-19T08:08:55.551Z,54.58
2022-10-19T08:11:33.239Z,53.75
2022-10-19T08:14:10.186Z,54.13
2022-10-19T08:16:40.644Z,54.40
2022-10-19T08:19:10.364Z,53.88
2022-10-19T08:21:39.075Z,52.83
2022-10-19T08:24:06.834Z,54.58
2022-10-19T08:26:37.842Z,51.35
2022-10-19T08:29:08.048Z,49.85
2022-10-19T08:31:35.344Z,49.83
2022-10-19T08:34:02.893Z,47.30
2022-10-19T08:36:33.025Z,50.35
2022-10-19T08:39:00.614Z,48.85
2022-10-19T08:41:30.425Z,46.70
2022-10-19T08:44:21.643Z,47.33
2022-10-19T08:47:27.115Z,49.60
2022-10-19T08:49:55.113Z,48.63
2022-10-19T08:52:30.773Z,47.97
2022-10-19T08:55:18.202Z,48.03
2022-10-19T08:57:50.553Z,48.38
2022-10-19T09:00:42.635Z,48.70
2022-10-19T09:03:31.988Z,47.45
2022-10-19T09:06:31.515Z,46.50
2022-10-19T09:08:59.435Z,45.45
2022-10-19T09:11:31.240Z,47.25
2022-10-19T09:14:22.259Z,48.10
2022-10-19T09:16:49.374Z,51.03
2022-10-19T09:19:25.791Z,50.20
2022-10-19T09:22:13.191Z,48.83
2022-10-19T09:24:46.654Z,49.67
2022-10-19T09:27:21.040Z,48.50
2022-10-19T09:29:55.895Z,49.40
2022-10-19T09:32:29.004Z,50.88
2022-10-19T09:35:03.064Z,48.63
2022-10-19T09:37:32.105Z,50.42
2022-10-19T09:39:59.425Z,47.38
2022-10-19T09:42:30.487Z,49.90
2022-10-19T09:44:59.594Z,49.03
2022-10-19T09:47:38.197Z,49.92
2022-10-19T09:50:12.224Z,47.90
2022-10-19T09:52:42.949Z,50.20
2022-10-19T09:55:38.102Z,49.92
2022-10-19T09:58:16.224Z,50.90
2022-10-19T10:00:52.254Z,48.50
2022-10-19T10:03:25.823Z,49.90
2022-10-19T10:05:54.373Z,48.15
2022-10-19T10:08:25.851Z,48.38
2022-10-19T10:11:12.409Z,48.13
2022-10-19T10:13:50.677Z,49.28
2022-10-19T10:16:21.183Z,48.00
2022-10-19T10:19:09.004Z,49.42
2022-10-19T10:21:55.742Z,51.70
2022-10-19T10:24:29.232Z,49.60
2022-10-19T10:26:58.825Z,49.67
2022-10-19T10:29:28.624Z,51.13
2022-10-19T10:32:18.809Z,50.25
2022-10-19T10:34:58.400Z,50.15
2022-10-19T10:37:36.790Z,49.60
2022-10-19T10:40:25.100Z,50.05
2022-10-19T10:42:54.570Z,52.55
2022-10-19T10:45:37.138Z,52.95
2022-10-19T10:48:31.833Z,49.72
2022-10-19T10:51:00.860Z,53.83
2022-10-19T10:53:45.454Z,54.05
2022-10-19T10:56:41.018Z,55.78
2022-10-19T10:59:33.624Z,54.30
2022-10-19T11:02:15.848Z,53.97
2022-10-19T11:04:52.175Z,54.55
2022-10-19T11:07:24.344Z,53.22
2022-10-19T11:10:09.990Z,50.15
2022-10-19T11:15:20.864Z,51.90
2022-10-19T11:18:18.124Z,52.00
2022-10-19T11:21:25.689Z,50.53
2022-10-19T11:24:07.874Z,51.35
2022-10-19T11:27:36.721Z,53.47
2022-10-19T11:30:22.974Z,53.53
2022-10-19T11:33:31.132Z,52.33
2022-10-19T11:36:02.029Z,53.38
2022-10-19T11:38:45.584Z,54.08
2022-10-19T11:41:36.959Z,53.60
2022-10-19T11:44:12.729Z,52.92
2022-10-19T11:46:53.079Z,53.58
2022-10-19T11:49:47.519Z,50.53
2022-10-19T11:56:07.165Z,54.05
2022-10-19T11:58:46.278Z,49.75
2022-10-19T12:01:42.661Z,53.28
2022-10-19T12:04:40.685Z,54.55
2022-10-19T12:07:32.750Z,55.45
2022-10-19T12:10:28.205Z,54.10
2022-10-19T12:13:03.174Z,50.03
2022-10-19T12:15:38.054Z,52.40
2022-10-19T12:18:32.337Z,56.40
2022-10-19T12:21:03.219Z,53.95
2022-10-19T12:23:40.118Z,53.28
2022-10-19T12:26:12.226Z,54.85
2022-10-19T12:28:50.293Z,52.53
2022-10-19T12:31:18.209Z,53.55
2022-10-19T12:34:02.489Z,55.63
2022-10-19T12:36:39.942Z,54.28
2022-10-19T12:39:37.564Z,56.33
2022-10-19T12:42:15.795Z,46.08
2022-10-19T12:45:13.960Z,46.78
2022-10-19T12:48:01.094Z,42.50
2022-10-19T12:50:50.145Z,51.35
2022-10-19T12:53:31.242Z,49.65
2022-10-19T12:56:12.731Z,48.15
2022-10-19T12:58:47.665Z,47.92
2022-10-19T13:01:31.580Z,45.85
2022-10-19T13:04:27.564Z,51.13
2022-10-19T13:06:57.647Z,46.83
2022-10-19T13:09:32.710Z,50.72
2022-10-19T13:12:19.357Z,48.05
2022-10-19T13:14:54.744Z,47.83
2022-10-19T13:17:37.368Z,48.45
2022-10-19T13:20:37.554Z,46.53
2022-10-19T13:23:07.425Z,46.10
2022-10-19T13:25:38.599Z,47.92
2022-10-19T13:28:11.415Z,49.88
2022-10-19T13:30:38.511Z,46.92
2022-10-19T13:33:30.414Z,47.17
2022-10-19T13:36:00.383Z,45.28
2022-10-19T13:38:42.299Z,45.53
2022-10-19T13:41:47.731Z,46.33
2022-10-19T13:44:25.340Z,40.40
2022-10-19T13:50:25.054Z,43.20
2022-10-19T13:53:08.109Z,40.42
2022-10-19T13:56:07.497Z,42.15
2022-10-19T13:58:43.770Z,43.95
2022-10-19T14:01:32.250Z,43.50
2022-10-19T14:04:21.984Z,42.97
2022-10-19T14:06:59.137Z,44.28
2022-10-19T14:09:27.904Z,43.35
2022-10-19T14:12:28.084Z,43.83
2022-10-19T14:14:55.451Z,34.15
2022-10-19T14:17:30.425Z,32.83
2022-10-19T14:20:00.098Z,35.22
2022-10-19T14:22:33.712Z,44.05
2022-10-19T14:25:08.916Z,41.55
2022-10-19T14:27:36.499Z,41.63
2022-10-19T14:30:05.664Z,41.08
2022-10-19T14:32:35.655Z,41.58
2022-10-19T14:35:22.712Z,42.15
2022-10-19T14:37:52.349Z,42.55
2022-10-19T14:40:28.140Z,43.15
2022-10-19T14:42:57.380Z,44.20
2022-10-19T14:45:28.216Z,41.03
2022-10-19T14:48:08.679Z,40.63
2022-10-19T14:50:54.004Z,42.13
2022-10-19T14:53:44.826Z,43.70
2022-10-19T14:56:18.526Z,43.38
2022-10-19T14:59:02.250Z,40.97
2022-10-19T15:01:29.421Z,42.25
2022-10-19T15:03:56.889Z,36.72
2022-10-19T15:06:36.240Z,41.65
2022-10-19T15:09:12.081Z,41.55
2022-10-19T15:11:50.064Z,43.08
2022-10-19T15:14:25.710Z,36.28
2022-10-19T15:16:58.786Z,39.95
2022-10-19T15:19:48.734Z,37.80
2022-10-19T15:22:17.990Z,40.63
2022-10-19T15:24:55.890Z,39.40
2022-10-19T15:27:37.651Z,37.80
2022-10-19T15:30:24.985Z,37.97
2022-10-19T15:33:01.157Z,38.75
2022-10-19T15:35:35.326Z,38.58
2022-10-19T15:38:12.254Z,38.83
2022-10-19T15:40:41.787Z,38.08
2022-10-19T15:43:36.950Z,38.03
2022-10-19T15:46:16.015Z,37.50
2022-10-19T15:48:51.211Z,38.22
2022-10-19T15:51:28.275Z,36.22
2022-10-19T15:53:57.804Z,37.90
2022-10-19T15:56:27.511Z,37.70
2022-10-19T15:58:57.820Z,37.05
2022-10-19T16:01:27.749Z,36.15
2022-10-19T16:03:57.560Z,36.95
2022-10-19T16:06:28.094Z,38.10
2022-10-19T16:08:55.705Z,36.08
2022-10-19T16:11:24.439Z,37.63
2022-10-19T16:13:51.565Z,38.95
2022-10-19T16:16:32.834Z,39.05
2022-10-19T16:19:00.980Z,40.65
2022-10-19T16:21:31.995Z,44.30
2022-10-19T16:23:59.936Z,43.83
2022-10-19T16:26:29.660Z,45.15
2022-10-19T16:28:57.273Z,47.67
2022-10-19T16:31:24.948Z,44.25
2022-10-19T16:33:52.108Z,34.72
2022-10-19T16:36:20.449Z,31.30
2022-10-19T16:38:48.530Z,32.25
2022-10-19T16:41:15.988Z,30.92
2022-10-19T16:43:43.295Z,29.85
2022-10-19T16:46:10.714Z,28.85
2022-10-19T16:48:38.519Z,28.73
2022-10-19T16:51:18.410Z,29.60
2022-10-19T16:53:47.074Z,27.85
2022-10-19T16:56:14.195Z,26.88
2022-10-19T16:58:41.415Z,27.17
2022-10-19T17:01:10.137Z,26.33
2022-10-19T17:03:37.557Z,27.77
2022-10-19T17:06:09.455Z,26.73
2022-10-19T17:08:56.687Z,25.95
2022-10-19T17:11:27.735Z,26.33
2022-10-19T17:13:56.624Z,24.10
2022-10-19T17:16:25.224Z,26.40
2022-10-19T17:18:55.510Z,25.90
2022-10-19T17:21:25.649Z,25.48
2022-10-19T17:23:54.249Z,26.08
2022-10-19T17:26:29.898Z,24.50
2022-10-19T17:28:59.641Z,25.90
2022-10-19T17:31:28.254Z,24.95
2022-10-19T17:33:56.314Z,25.15
2022-10-19T17:36:26.583Z,24.23
2022-10-19T17:38:55.305Z,25.00
2022-10-19T17:41:22.610Z,24.92
2022-10-19T17:43:53.794Z,27.77
2022-10-19T17:46:32.754Z,24.58
2022-10-19T17:49:00.629Z,24.35
2022-10-19T17:51:30.181Z,23.55
2022-10-19T17:54:00.370Z,23.92
2022-10-19T17:56:28.511Z,25.10
2022-10-19T17:58:59.463Z,22.65
2022-10-19T18:01:27.394Z,23.85
2022-10-19T18:03:54.778Z,24.88
2022-10-19T18:06:40.254Z,22.98
2022-10-19T18:09:09.481Z,22.63
2022-10-19T18:11:41.817Z,20.90
2022-10-19T18:14:10.675Z,21.00
2022-10-19T18:16:46.214Z,20.67
2022-10-19T18:19:15.865Z,20.90
2022-10-19T18:21:45.155Z,20.77
2022-10-19T18:24:21.074Z,19.98
2022-10-19T18:26:49.704Z,19.90
2022-10-19T18:29:22.689Z,20.65
2022-10-19T18:31:51.630Z,20.70
2022-10-19T18:34:24.975Z,19.30
2022-10-19T18:36:52.750Z,19.60
2022-10-19T18:39:20.204Z,19.15
2022-10-19T18:41:51.945Z,20.02
2022-10-19T18:44:23.647Z,20.75
2022-10-19T18:46:53.835Z,20.15
2022-10-19T18:49:21.050Z,18.73
2022-10-19T18:51:54.280Z,20.00
2022-10-19T18:54:23.284Z,18.20
2022-10-19T18:56:50.409Z,17.92
2022-10-19T18:59:17.551Z,18.10
2022-10-19T19:01:44.720Z,18.38
2022-10-19T19:04:12.572Z,17.52
2022-10-19T19:06:39.863Z,16.90
2022-10-19T19:09:10.173Z,17.02
2022-10-19T19:11:41.053Z,17.27
2022-10-19T19:14:17.544Z,17.05
2022-10-19T19:16:45.517Z,16.20
2022-10-19T19:19:14.930Z,16.17
2022-10-19T19:21:45.194Z,16.13
2022-10-19T19:24:18.658Z,16.17
2022-10-19T19:26:52.283Z,15.60
2022-10-19T19:29:20.685Z,15.57
2022-10-19T19:31:48.286Z,15.30
2022-10-19T19:34:15.449Z,15.57
2022-10-19T19:36:48.091Z,15.77
2022-10-19T19:39:18.827Z,14.85
2022-10-19T19:41:46.405Z,15.10
2022-10-19T19:44:13.574Z,15.50
2022-10-19T19:46:43.193Z,14.95
2022-10-19T19:49:10.274Z,13.82
2022-10-19T19:51:37.389Z,14.10
2022-10-19T19:54:05.634Z,14.50
2022-10-19T19:56:33.118Z,14.50
2022-10-19T19:59:03.781Z,13.73
2022-10-19T20:01:32.324Z,14.38
2022-10-19T20:04:05.402Z,13.25
2022-10-19T20:06:34.135Z,13.30
2022-10-19T20:09:03.732Z,13.35
2022-10-19T20:11:30.959Z,13.38
2022-10-19T20:13:58.750Z,13.38
2022-10-19T20:16:29.413Z,13.75
2022-10-19T20:19:05.109Z,12.73
2022-10-19T20:21:33.739Z,12.73
2022-10-19T20:24:01.356Z,13.75
2022-10-19T20:26:28.704Z,13.13
2022-10-19T20:28:56.143Z,13.45
2022-10-19T20:31:23.990Z,13.27
2022-10-19T20:33:51.190Z,13.70
2022-10-19T20:36:21.600Z,13.07
2022-10-19T20:38:50.964Z,12.88
2022-10-19T20:41:20.231Z,13.35
2022-10-19T20:43:50.119Z,14.05
2022-10-19T20:46:22.257Z,12.45
2022-10-19T20:48:50.278Z,13.43
2022-10-19T20:51:30.771Z,12.65
2022-10-19T20:54:01.385Z,13.88
2022-10-19T20:56:33.047Z,13.15
2022-10-19T20:59:15.526Z,13.05
2022-10-19T21:01:44.142Z,12.93
2022-10-19T21:04:15.103Z,13.50
2022-10-19T21:06:44.699Z,14.07
2022-10-19T21:09:13.568Z,14.57
2022-10-19T21:11:43.074Z,13.73
2022-10-19T21:14:26.955Z,13.00
2022-10-19T21:16:56.999Z,12.48
2022-10-19T21:19:26.043Z,13.00
2022-10-19T21:21:55.949Z,13.57
2022-10-19T21:24:27.785Z,13.82
2022-10-19T21:26:55.076Z,13.32
2022-10-19T21:29:22.234Z,13.32
2022-10-19T21:31:53.041Z,14.20
2022-10-19T21:34:25.337Z,12.88
2022-10-19T21:36:52.694Z,13.68
2022-10-19T21:39:20.449Z,14.10
2022-10-19T21:41:48.420Z,13.27
2022-10-19T21:44:18.524Z,14.07
2022-10-19T21:46:47.993Z,13.40
2022-10-19T21:49:15.849Z,13.13
2022-10-19T21:51:44.753Z,13.05
2022-10-19T21:54:19.435Z,13.95
2022-10-19T21:56:47.529Z,14.02
2022-10-19T21:59:17.381Z,13.45
2022-10-19T22:01:45.896Z,14.18
2022-10-19T22:04:17.150Z,14.88
2022-10-19T22:06:45.054Z,14.38
2022-10-19T22:09:26.849Z,13.48
2022-10-19T22:11:55.517Z,14.68
2022-10-19T22:14:24.060Z,14.63
2022-10-19T22:16:52.614Z,13.90
2022-10-19T22:19:19.989Z,15.05
2022-10-19T22:21:47.262Z,14.65
2022-10-19T22:24:15.868Z,14.23
2022-10-19T22:26:45.834Z,15.27
2022-10-19T22:29:13.127Z,15.52
2022-10-19T22:31:40.484Z,16.23
2022-10-19T22:34:15.057Z,14.85
2022-10-19T22:36:42.615Z,13.98
2022-10-19T22:39:10.054Z,17.25
2022-10-19T22:42:35.540Z,16.63
2022-10-19T22:45:02.870Z,16.30
2022-10-19T22:47:30.170Z,17.00
2022-10-19T22:49:57.364Z,16.23
2022-10-19T22:52:24.554Z,16.55
2022-10-19T22:54:51.663Z,16.13
2022-10-19T22:57:18.839Z,17.17
2022-10-19T22:59:46.144Z,17.00
2022-10-19T23:02:13.214Z,17.38
2022-10-19T23:04:40.394Z,16.83
2022-10-19T23:07:07.499Z,17.05
2022-10-19T23:09:37.724Z,17.27
2022-10-19T23:12:05.084Z,17.02
2022-10-19T23:14:37.106Z,16.70
2022-10-19T23:17:09.125Z,16.75
2022-10-19T23:19:36.210Z,17.33
2022-10-19T23:22:03.276Z,16.55
2022-10-19T23:24:34.954Z,16.55
2022-10-19T23:27:02.060Z,17.38
2022-10-19T23:29:29.095Z,17.70
2022-10-19T23:31:56.120Z,17.15
2022-10-19T23:34:23.278Z,16.58
2022-10-19T23:36:50.369Z,17.80
2022-10-19T23:39:17.500Z,18.23
2022-10-19T23:41:44.639Z,18.63
2022-10-19T23:44:11.798Z,18.27
2022-10-19T23:46:38.927Z,18.65
2022-10-19T23:49:06.229Z,17.65
2022-10-19T23:51:35.625Z,17.65
2022-10-19T23:54:02.634Z,17.88
2022-10-19T23:56:30.129Z,17.95
2022-10-19T23:58:57.484Z,17.58
